CYKY

Kindersley Airport

Kindersley, Saskatchewan, Canada
METAR CYKY 210700Z 17006KT 15SM FEW250 15/05 A2977 RMK CI1 CI TR SLP077 DENSITY ALT 3000FT
Observed Flight Rules
May-21 @ 07:00 UTC (18 minutes ago) Visual Flight Rules
Wind Visibility Clouds
170° at 6 knots 15 miles
  • Few at 25,000' AGL
Temperatures Readings
Current 15°C / 59°F
Dewpoint 5°C / 41°F
Humidity 51%
Altimeter 29.77" Hg
Pressure 1007.7 hPa
Elevation 694
METAR CYKY 210700Z 17006KT 15SM FEW250 15/05 A2977 RMK CI1 CI TR SLP077 DENSITY ALT 3000FT
Observed Flight Rules
May-21 @ 07:00 UTC
(18 minutes ago)
VFR
Wind Visibility
170° at 6 knots 15 miles
Clouds
  • Few at 25,000' AGL
Temperature Dewpoint
15°C / 59°F 5°C / 41°F
Humidity Altimeter Pressure
51% 29.77" Hg 1007.7 hPa